Nearby METAR Reports

 

KPMP - Pompano Beach, Florida, USA
Distance from station: NNW 3mi, 5km
Updated: 02/17/2018 4:53pm
Few Clouds
Few Clouds
 Wind from SE
Wind: SE 13 mph , 20 km/h
Temperature: 79°F , 26°C
Dew Point: 66°F , 19°C
Humidity: 65%
Barometer: 30.16 inHg , 1021.3 hPa
Clouds: Few Clouds
Visibility: 10 miles , 16 km
Cloud details: Few Clouds 2800 ft
2018/02/17 21:53 KPMP 172153Z 13011KT 10SM FEW028 26/19 A3016 RMK AO2 SLP215 T02610194
KFXE - Ft Lauderd/Exec, Florida, USA
Distance from station: W 6mi, 9km
Updated: 02/17/2018 4:53pm
Clear
Clear
 Wind from SE
Wind: SE 13 mph , 20 km/h
Temperature: 79°F , 26°C
Dew Point: 64°F , 18°C
Humidity: 61%
Barometer: 30.16 inHg , 1021.3 hPa
Clouds: Clear
Visibility: 10 miles , 16 km
2018/02/17 21:53 KFXE 172153Z 14011KT 10SM CLR 26/18 A3016 RMK AO2 SLP216 T02610183 $
 
KFLL - Ft Lauderd/Holly, Florida, USA
Distance from station: SSW 11mi, 17km
Updated: 02/17/2018 4:53pm
Few Clouds
Few Clouds
 Wind from SSE
Wind: SSE 13 mph , 20 km/h
Temperature: 79°F , 26°C
Dew Point: 66°F , 19°C
Humidity: 65%
Barometer: 30.16 inHg , 1021.3 hPa
Clouds: Few Clouds
Visibility: 10 miles , 16 km
Cloud details: Few Clouds 3000 ft
2018/02/17 21:53 KFLL 172153Z 16011KT 10SM FEW030 26/19 A3016 RMK AO2 SLP212 T02560194
KBCT - Boca Raton, Florida, USA
Distance from station: N 12mi, 19km
Updated: 02/17/2018 4:47pm
Clear
Clear
 Wind from SE
Wind: SE 13 mph , 20 km/h
Temperature: 77°F , 25°C
Dew Point: 64°F , 18°C
Humidity: 65%
Barometer: 30.17 inHg , 1021.7 hPa
Clouds: Clear
Visibility: 10 miles , 16 km
2018/02/17 21:47 KBCT 172147Z 14011KT 10SM CLR 25/18 A3017
 
KHWO - Hollywood, Florida, USA
Distance from station: SSW 17mi, 27km
Updated: 02/17/2018 4:53pm
Few Clouds
Few Clouds
 Wind from ESE
Wind: ESE 14 mph , 22 km/h, Gust: 20 mph , 31 km/h
Temperature: 81°F , 27°C
Heat Index: 83°F , 28°C
Dew Point: 64°F , 18°C
Humidity: 58%
Barometer: 30.18 inHg , 1022 hPa
Clouds: Few Clouds
Visibility: 10 miles , 16 km
Cloud details: Few Clouds 3300 ft
2018/02/17 21:53 KHWO 172153Z 12012G17KT 10SM FEW033 27/18 A3018 RMK AO2 SLP218 T02720183
KOPF - Miami/Opa Locka, Florida, USA
Distance from station: SSW 24mi, 38km
Updated: 02/17/2018 4:53pm
Partly cloudy
Partly cloudy
 Wind from SE
Wind: SE 14 mph , 22 km/h
Temperature: 81°F , 27°C
Heat Index: 83°F , 28°C
Dew Point: 64°F , 18°C
Humidity: 58%
Barometer: 30.17 inHg , 1021.7 hPa
Clouds: Partly cloudy
Visibility: 10 miles , 16 km
Cloud details: Partly cloudy 4100 ft
Partly cloudy 5000 ft
2018/02/17 21:53 KOPF 172153Z 13012KT 10SM SCT041 SCT050 27/18 A3017 RMK AO2 SLP217 T02670183
 
KMIA - Miami, Florida, USA
Distance from station: SSW 31mi, 50km
Updated: 02/17/2018 4:53pm
Few Clouds
Few Clouds
 Wind from SE
Wind: SE 14 mph , 22 km/h, Gust: 21 mph , 33 km/h
Temperature: 81°F , 27°C
Heat Index: 83°F , 28°C
Dew Point: 64°F , 18°C
Humidity: 58%
Barometer: 30.17 inHg , 1021.7 hPa
Clouds: Few Clouds
Visibility: 10 miles , 16 km
Cloud details: Few Clouds 3600 ft
Few Clouds 7500 ft
2018/02/17 21:53 KMIA 172153Z 13012G18KT 10SM FEW036 FEW075 27/18 A3017 RMK AO2 SLP216 T02670183
KPBI - West Palm Beach, Florida, USA
Distance from station: N 33mi, 52km
Updated: 02/17/2018 4:53pm
Few Clouds
Few Clouds
 Wind from SE
Wind: SE 13 mph , 20 km/h
Temperature: 79°F , 26°C
Dew Point: 64°F , 18°C
Humidity: 61%
Barometer: 30.17 inHg , 1021.7 hPa
Clouds: Few Clouds
Visibility: 10 miles , 16 km
Cloud details: Few Clouds 3700 ft
2018/02/17 21:53 KPBI 172153Z 14011KT 10SM FEW037 26/18 A3017 RMK AO2 SLP214 T02610183
 
KTMB - Miami/Tamiami, Florida, USA
Distance from station: SSW 44mi, 71km
Updated: 02/17/2018 4:53pm
Few Clouds
Few Clouds
 Wind from SE
Wind: SE 10 mph , 17 km/h
Temperature: 79°F , 26°C
Dew Point: 64°F , 18°C
Humidity: 61%
Barometer: 30.17 inHg , 1021.7 hPa
Clouds: Few Clouds
Visibility: 10 miles , 16 km
Cloud details: Few Clouds 3800 ft
2018/02/17 21:53 KTMB 172153Z 14009KT 10SM FEW038 26/18 A3017 RMK AO2 SLP215 T02610178